Time;durP1;ratioP1;P1;durP2;ratioP2;P2;SDS_P1;SDS_P2;PMS_P1;PMS_P2;Temp;Humidity;BMP_temperature;BMP_pressure;BME280_temperature;BME280_humidity;BME280_pressure;Samples;Min_cycle;Max_cycle;Signal;HPM_P1;HPM_P2
2023/07/16 00:02:04;;;;;;;15.60;6.15;;;17.20;77.00;;;;;;5002015;28;20041;-79
2023/07/16 00:04:31;;;;;;;16.75;6.13;;;17.20;76.80;;;;;;5034135;28;20460;-80
2023/07/16 00:06:57;;;;;;;16.27;6.00;;;17.20;76.80;;;;;;5038113;28;20123;-80
2023/07/16 00:09:23;;;;;;;14.70;5.90;;;17.20;76.60;;;;;;5021542;28;20124;-80
2023/07/16 00:11:49;;;;;;;25.00;6.93;;;17.30;76.40;;;;;;5021593;28;20523;-80
2023/07/16 00:14:15;;;;;;;16.63;5.70;;;17.30;76.50;;;;;;5037841;28;20037;-80
2023/07/16 00:16:41;;;;;;;13.85;5.65;;;17.30;76.30;;;;;;5021737;28;20124;-80
2023/07/16 00:19:06;;;;;;;15.18;6.18;;;17.30;76.50;;;;;;5021528;28;20099;-80
2023/07/16 00:21:32;;;;;;;18.17;4.97;;;17.30;76.60;;;;;;5037049;28;20044;-81
2023/07/16 00:23:58;;;;;;;13.75;4.97;;;17.40;76.70;;;;;;5054383;28;20056;-80
2023/07/16 00:26:24;;;;;;;12.77;5.40;;;17.40;77.10;;;;;;5054354;28;20041;-80
2023/07/16 00:28:50;;;;;;;10.05;4.28;;;17.30;77.30;;;;;;5021483;28;20056;-80
2023/07/16 00:31:15;;;;;;;12.20;4.43;;;17.20;77.80;;;;;;5021809;28;20033;-80
2023/07/16 00:33:41;;;;;;;11.15;3.80;;;17.00;77.90;;;;;;5021047;28;20076;-80
2023/07/16 00:36:07;;;;;;;15.50;5.13;;;17.00;78.00;;;;;;5021109;28;20065;-80
2023/07/16 00:38:32;;;;;;;11.25;4.00;;;16.80;78.40;;;;;;5017633;28;20044;-80
2023/07/16 00:40:58;;;;;;;11.98;5.15;;;16.90;78.40;;;;;;5001452;28;20041;-80
2023/07/16 00:43:24;;;;;;;16.58;4.97;;;16.80;79.00;;;;;;4985467;28;20038;-80
2023/07/16 00:45:50;;;;;;;16.15;4.28;;;16.80;78.90;;;;;;4985198;28;20470;-80
2023/07/16 00:48:16;;;;;;;13.25;4.75;;;16.80;79.10;;;;;;5001429;28;20474;-80
2023/07/16 00:50:42;;;;;;;11.90;4.25;;;16.80;78.80;;;;;;5018388;28;20124;-80
2023/07/16 00:53:12;;;;;;;10.80;4.60;;;16.80;78.90;;;;;;5021810;28;20489;-80
2023/07/16 00:55:39;;;;;;;13.80;4.75;;;16.80;79.20;;;;;;5052853;28;20076;-80
2023/07/16 00:58:07;;;;;;;14.75;4.45;;;16.80;79.10;;;;;;5020809;28;20041;-80
2023/07/16 01:00:38;;;;;;;11.07;4.32;;;16.80;78.90;;;;;;5053536;28;20076;-80
2023/07/16 01:03:07;;;;;;;14.27;5.22;;;16.80;79.20;;;;;;5036948;28;20552;-79
2023/07/16 01:06:06;;;;;;;14.70;4.78;;;16.80;80.00;;;;;;5053229;28;20044;-80
2023/07/16 01:08:35;;;;;;;13.38;4.18;;;16.70;79.60;;;;;;5036040;28;20520;-80
2023/07/16 01:11:03;;;;;;;12.27;4.35;;;16.70;79.60;;;;;;5053562;28;20041;-80
2023/07/16 01:13:29;;;;;;;10.05;4.45;;;16.70;80.20;;;;;;5053325;28;20051;-79
2023/07/16 01:15:55;;;;;;;14.77;4.35;;;16.60;80.70;;;;;;5036769;28;20126;-80
2023/07/16 01:18:21;;;;;;;12.45;4.80;;;16.60;80.70;;;;;;5036569;28;20477;-80
2023/07/16 01:20:46;;;;;;;15.45;4.57;;;16.60;80.80;;;;;;5019953;28;20036;-80
2023/07/16 01:23:15;;;;;;;19.38;5.43;;;16.60;81.10;;;;;;5003824;28;20065;-80
2023/07/16 01:25:53;;;;;;;8.77;4.18;;;16.60;81.70;;;;;;5033693;28;20069;-80
2023/07/16 01:28:37;;;;;;;11.15;4.57;;;16.60;81.50;;;;;;5017007;28;20095;-80
2023/07/16 01:31:03;;;;;;;;;;;16.60;82.80;;;;;;5017044;28;20048;-79
2023/07/16 01:33:29;;;;;;;11.57;4.65;;;16.60;82.30;;;;;;5016548;28;19921;-80
2023/07/16 01:35:55;;;;;;;12.20;5.60;;;16.70;82.60;;;;;;5016276;28;20127;-80
2023/07/16 01:38:23;;;;;;;14.85;5.45;;;16.70;83.20;;;;;;5032981;28;20049;-79
2023/07/16 01:40:48;;;;;;;10.85;4.82;;;16.80;83.70;;;;;;5016878;28;20095;-80
2023/07/16 01:43:14;;;;;;;15.98;5.15;;;16.70;83.70;;;;;;5053070;28;20041;-80
2023/07/16 01:45:40;;;;;;;17.42;6.40;;;16.70;83.10;;;;;;5036032;28;20037;-80
2023/07/16 01:48:14;;;;;;;16.15;4.68;;;16.70;82.80;;;;;;5003356;28;20512;-80
2023/07/16 01:50:41;;;;;;;15.38;4.68;;;16.70;82.50;;;;;;5036042;28;20508;-80
2023/07/16 01:53:06;;;;;;;14.30;3.92;;;16.70;82.00;;;;;;5019878;28;20041;-80
2023/07/16 01:55:32;;;;;;;16.25;4.03;;;16.80;81.70;;;;;;5019348;28;20554;-80
2023/07/16 01:57:58;;;;;;;9.48;3.72;;;16.80;81.30;;;;;;5032039;28;20041;-79
2023/07/16 02:00:23;;;;;;;11.07;4.05;;;16.80;81.00;;;;;;5016307;28;20045;-80
2023/07/16 02:02:49;;;;;;;10.45;3.67;;;16.80;80.50;;;;;;4999619;28;20128;-80
2023/07/16 02:05:16;;;;;;;10.23;3.63;;;16.90;80.10;;;;;;5015840;28;20112;-80
2023/07/16 02:07:42;;;;;;;10.30;3.63;;;16.90;79.90;;;;;;5015903;28;20448;-80
2023/07/16 02:10:08;;;;;;;14.38;4.15;;;16.90;79.70;;;;;;4999680;28;20042;-80
2023/07/16 02:12:33;;;;;;;13.75;3.63;;;16.90;79.40;;;;;;5034231;28;20490;-80
2023/07/16 02:14:59;;;;;;;10.65;3.42;;;16.90;79.50;;;;;;5051900;28;20056;-80
2023/07/16 02:17:25;;;;;;;11.65;4.43;;;16.90;79.50;;;;;;5003743;28;20072;-80
2023/07/16 02:19:50;;;;;;;9.82;3.30;;;16.90;79.50;;;;;;5019532;28;20045;-80
2023/07/16 02:22:16;;;;;;;11.75;3.90;;;16.90;79.50;;;;;;5035652;28;20076;-79
2023/07/16 02:24:42;;;;;;;12.23;3.63;;;16.90;79.60;;;;;;5035426;28;20041;-80
2023/07/16 02:27:08;;;;;;;8.50;3.83;;;17.00;79.30;;;;;;5036024;28;20059;-80
2023/07/16 02:29:33;;;;;;;9.73;4.13;;;16.90;79.50;;;;;;5052137;28;20557;-80
2023/07/16 02:31:59;;;;;;;13.63;5.07;;;16.90;79.70;;;;;;5017769;28;20064;-80
2023/07/16 02:34:24;;;;;;;11.77;5.15;;;16.90;80.30;;;;;;4999052;28;20059;-80
2023/07/16 02:36:50;;;;;;;16.50;6.00;;;16.90;80.00;;;;;;5016654;28;20099;-80
2023/07/16 02:39:16;;;;;;;12.77;6.75;;;17.00;79.10;;;;;;5033175;28;20038;-79
2023/07/16 02:41:41;;;;;;;12.30;6.15;;;17.00;79.00;;;;;;5016521;28;20060;-80
2023/07/16 02:44:08;;;;;;;12.95;6.00;;;17.10;79.30;;;;;;4983867;28;20133;-80
2023/07/16 02:46:34;;;;;;;17.08;6.60;;;17.10;79.20;;;;;;5033484;28;20120;-80
2023/07/16 02:49:00;;;;;;;14.25;6.32;;;17.00;80.10;;;;;;5000147;28;20095;-80
2023/07/16 02:51:26;;;;;;;10.38;5.60;;;17.10;79.40;;;;;;5016724;28;20390;-79
2023/07/16 02:53:52;;;;;;;15.90;5.60;;;17.10;79.00;;;;;;5015882;28;20033;-80
2023/07/16 02:56:17;;;;;;;14.23;6.07;;;17.10;78.80;;;;;;4999337;28;20559;-80
2023/07/16 02:58:43;;;;;;;14.80;6.63;;;17.20;78.40;;;;;;5000125;28;20042;-80
2023/07/16 03:01:09;;;;;;;10.93;5.72;;;17.20;78.50;;;;;;5032701;28;20049;-79
2023/07/16 03:03:35;;;;;;;13.65;5.53;;;17.20;78.40;;;;;;5015975;28;20132;-80
2023/07/16 03:06:00;;;;;;;16.58;6.53;;;17.20;78.60;;;;;;5031702;28;20172;-79
2023/07/16 03:08:29;;;;;;;12.80;6.50;;;17.20;78.90;;;;;;5015893;28;20041;-80
2023/07/16 03:10:56;;;;;;;14.90;6.80;;;17.30;78.60;;;;;;5000544;28;20048;-79
2023/07/16 03:13:22;;;;;;;12.88;6.05;;;17.20;79.20;;;;;;5015945;28;20073;-80
2023/07/16 03:15:47;;;;;;;19.02;6.10;;;17.20;79.30;;;;;;5016234;28;20041;-80
2023/07/16 03:18:13;;;;;;;15.00;6.18;;;17.20;79.20;;;;;;5033497;28;20087;-80
2023/07/16 03:20:39;;;;;;;8.75;4.55;;;17.20;79.00;;;;;;5036080;28;20084;-79
2023/07/16 03:23:05;;;;;;;16.50;6.55;;;17.40;78.60;;;;;;5019161;28;20448;-80
2023/07/16 03:25:30;;;;;;;32.97;8.38;;;17.40;78.40;;;;;;5018730;28;20155;-80
2023/07/16 03:27:56;;;;;;;17.77;7.45;;;17.40;78.60;;;;;;5018249;28;20048;-80
2023/07/16 03:30:22;;;;;;;17.60;7.43;;;17.40;78.50;;;;;;5018476;28;20084;-81
2023/07/16 03:32:47;;;;;;;13.77;6.78;;;17.40;78.70;;;;;;5034988;28;20041;-80
2023/07/16 03:35:13;;;;;;;13.85;7.30;;;17.40;78.80;;;;;;5024076;28;20500;-80
2023/07/16 03:37:39;;;;;;;12.45;6.70;;;17.30;78.90;;;;;;5055398;28;20127;-79
2023/07/16 03:40:15;;;;;;;13.38;6.18;;;17.30;79.30;;;;;;5022193;28;20492;-80
2023/07/16 03:42:41;;;;;;;17.83;6.45;;;17.40;79.50;;;;;;5055236;28;20037;-80
2023/07/16 03:45:08;;;;;;;18.15;6.82;;;17.30;79.70;;;;;;5038189;28;20044;-80
2023/07/16 03:47:34;;;;;;;10.88;6.40;;;17.40;79.80;;;;;;5038679;28;20032;-80
2023/07/16 03:49:59;;;;;;;17.77;7.40;;;17.40;79.60;;;;;;5054963;28;20089;-80
2023/07/16 03:52:26;;;;;;;16.67;7.30;;;17.40;79.80;;;;;;5054890;28;20040;-80
2023/07/16 03:54:52;;;;;;;13.70;6.22;;;17.40;80.00;;;;;;5038078;28;20047;-80
2023/07/16 03:57:18;;;;;;;14.38;7.45;;;17.40;80.00;;;;;;5023703;28;20045;-79
2023/07/16 03:59:43;;;;;;;16.42;7.97;;;17.40;80.10;;;;;;5038354;28;20102;-80
2023/07/16 04:02:09;;;;;;;12.10;7.28;;;17.40;79.70;;;;;;5038120;28;20504;-80
2023/07/16 04:04:35;;;;;;;16.42;6.63;;;17.40;79.60;;;;;;5005177;28;20072;-79
2023/07/16 04:07:00;;;;;;;13.13;7.35;;;17.40;79.60;;;;;;5006368;28;20037;-80
2023/07/16 04:09:26;;;;;;;20.70;7.20;;;17.30;79.80;;;;;;5018426;28;20037;-79
2023/07/16 04:11:52;;;;;;;15.25;7.05;;;17.30;79.40;;;;;;5002416;28;20041;-80
2023/07/16 04:14:17;;;;;;;12.15;6.40;;;17.30;79.80;;;;;;5001933;28;20038;-80
2023/07/16 04:16:43;;;;;;;18.63;6.20;;;17.30;79.70;;;;;;4986133;28;20047;-80
2023/07/16 04:19:09;;;;;;;16.05;6.38;;;17.40;79.70;;;;;;5018122;28;20519;-80
2023/07/16 04:21:35;;;;;;;13.07;7.25;;;17.30;79.70;;;;;;5034629;28;20037;-80
2023/07/16 04:24:02;;;;;;;17.65;7.40;;;17.30;79.70;;;;;;5017804;28;20049;-80
2023/07/16 04:26:28;;;;;;;14.10;8.20;;;17.40;79.40;;;;;;5047574;28;20083;-80
2023/07/16 04:28:54;;;;;;;13.82;6.95;;;17.40;79.10;;;;;;5037076;28;20473;-80
2023/07/16 04:31:20;;;;;;;15.15;7.18;;;17.50;79.10;;;;;;5037427;28;20037;-79
2023/07/16 04:33:45;;;;;;;14.25;7.32;;;17.50;79.40;;;;;;5021388;28;20041;-79
2023/07/16 04:36:11;;;;;;;15.43;7.40;;;17.50;79.40;;;;;;5037413;28;20387;-79
2023/07/16 04:38:37;;;;;;;17.83;7.50;;;17.50;78.80;;;;;;5037598;28;20048;-80
2023/07/16 04:41:02;;;;;;;15.65;6.75;;;17.50;79.10;;;;;;5049511;28;20045;-79
2023/07/16 04:43:28;;;;;;;14.25;6.40;;;17.50;78.90;;;;;;5001320;28;20482;-80
2023/07/16 04:45:54;;;;;;;13.35;6.20;;;17.50;79.20;;;;;;4984770;28;20045;-80
2023/07/16 04:48:19;;;;;;;14.38;6.28;;;17.50;78.60;;;;;;5017775;28;20073;-80
2023/07/16 04:50:45;;;;;;;15.60;6.68;;;17.60;78.30;;;;;;5017472;28;20124;-81
2023/07/16 04:53:11;;;;;;;13.68;7.00;;;17.60;78.10;;;;;;4985638;28;20043;-80
2023/07/16 04:55:38;;;;;;;12.65;6.63;;;17.50;78.90;;;;;;4985333;28;20041;-81
2023/07/16 04:58:04;;;;;;;15.60;6.88;;;17.60;78.80;;;;;;5018227;28;20056;-79
2023/07/16 05:00:32;;;;;;;12.35;6.82;;;17.60;79.20;;;;;;5017722;28;20053;-80
2023/07/16 05:02:57;;;;;;;16.13;7.20;;;17.60;79.50;;;;;;5017761;28;20096;-80
2023/07/16 05:05:23;;;;;;;20.58;6.82;;;17.60;79.70;;;;;;4984912;28;20041;-80
2023/07/16 05:07:48;;;;;;;15.63;7.55;;;17.60;79.40;;;;;;5051614;28;20192;-80
2023/07/16 05:10:14;;;;;;;14.45;6.85;;;17.70;79.90;;;;;;5020958;28;20029;-81
2023/07/16 05:12:40;;;;;;;15.57;7.35;;;17.60;80.10;;;;;;5020845;28;20541;-81
2023/07/16 05:15:06;;;;;;;14.15;6.38;;;17.60;80.30;;;;;;4990503;28;20078;-80
2023/07/16 05:17:32;;;;;;;13.52;7.47;;;17.60;81.00;;;;;;5017499;28;20041;-81
2023/07/16 05:19:58;;;;;;;15.68;6.97;;;17.40;82.70;;;;;;5001059;28;20037;-84
2023/07/16 05:22:23;;;;;;;13.30;6.82;;;17.20;83.40;;;;;;5017042;28;20044;-80
2023/07/16 05:24:49;;;;;;;17.58;7.82;;;17.00;84.50;;;;;;4984484;28;20132;-81
2023/07/16 05:27:15;;;;;;;18.23;7.28;;;16.80;86.00;;;;;;5000835;28;20120;-79
2023/07/16 05:29:40;;;;;;;15.27;8.25;;;16.90;85.40;;;;;;5018177;28;20045;-80
2023/07/16 05:32:06;;;;;;;15.55;7.57;;;16.80;86.00;;;;;;5017703;28;20457;-79
2023/07/16 05:34:33;;;;;;;14.25;6.80;;;16.80;85.70;;;;;;5033402;28;20301;-80
2023/07/16 05:36:59;;;;;;;15.80;7.65;;;16.90;85.40;;;;;;5033797;28;20077;-80
2023/07/16 05:39:25;;;;;;;16.00;7.22;;;16.90;85.20;;;;;;5033806;28;20041;-80
2023/07/16 05:41:51;;;;;;;13.00;6.30;;;17.00;85.10;;;;;;5017120;28;20034;-80
2023/07/16 05:44:16;;;;;;;12.57;6.53;;;17.00;84.80;;;;;;5017342;28;20103;-80
2023/07/16 05:46:42;;;;;;;11.25;6.18;;;17.10;84.40;;;;;;4985146;28;20049;-79
2023/07/16 05:49:08;;;;;;;16.65;6.95;;;17.40;83.70;;;;;;5001214;28;20033;-80
2023/07/16 05:51:33;;;;;;;21.95;6.32;;;17.40;83.90;;;;;;5017456;28;20042;-79
2023/07/16 05:53:59;;;;;;;12.48;6.50;;;17.40;83.90;;;;;;5033804;28;20041;-80
2023/07/16 05:56:25;;;;;;;16.45;6.07;;;17.30;84.20;;;;;;5000641;28;20387;-80
2023/07/16 05:58:50;;;;;;;14.60;6.63;;;17.40;83.50;;;;;;5017599;28;20037;-80
2023/07/16 06:01:16;;;;;;;11.32;5.40;;;17.30;83.30;;;;;;5018027;28;20506;-80
2023/07/16 06:03:42;;;;;;;13.95;5.50;;;17.30;83.60;;;;;;5019072;28;20067;-79
2023/07/16 06:06:10;;;;;;;13.20;5.50;;;17.30;83.60;;;;;;5004107;28;20091;-80
2023/07/16 06:08:36;;;;;;;14.38;6.65;;;17.30;83.80;;;;;;5036429;28;20055;-79
2023/07/16 06:11:03;;;;;;;14.90;6.28;;;17.10;84.60;;;;;;5036687;28;20120;-79
2023/07/16 06:13:29;;;;;;;13.23;6.25;;;17.10;84.80;;;;;;5036980;28;20057;-80
2023/07/16 06:15:55;;;;;;;13.55;6.55;;;17.20;85.00;;;;;;5052951;28;20048;-80
2023/07/16 06:18:21;;;;;;;16.10;6.28;;;17.30;84.60;;;;;;5036449;28;20044;-81
2023/07/16 06:20:46;;;;;;;11.60;6.28;;;17.50;85.10;;;;;;5013488;28;20044;-80
2023/07/16 06:23:13;;;;;;;11.85;6.18;;;17.50;84.30;;;;;;5016592;28;20042;-79
2023/07/16 06:25:44;;;;;;;17.88;6.15;;;17.60;83.50;;;;;;4999914;28;20133;-80
2023/07/16 06:28:10;;;;;;;17.83;6.82;;;17.80;83.30;;;;;;5000814;28;20046;-80
2023/07/16 06:30:36;;;;;;;11.07;5.88;;;17.90;82.20;;;;;;5016529;28;20029;-80
2023/07/16 06:33:02;;;;;;;16.17;6.30;;;17.90;82.30;;;;;;5016084;28;20045;-79
2023/07/16 06:35:28;;;;;;;13.20;6.43;;;17.80;81.60;;;;;;4999784;28;20057;-79
2023/07/16 06:37:54;;;;;;;11.10;6.60;;;17.80;81.20;;;;;;5000429;28;20049;-80
2023/07/16 06:40:19;;;;;;;10.10;5.78;;;17.90;81.00;;;;;;5018664;28;20129;-79
2023/07/16 06:42:45;;;;;;;12.75;6.03;;;18.00;80.90;;;;;;5019649;28;20041;-80
2023/07/16 06:45:10;;;;;;;13.25;6.72;;;18.20;80.90;;;;;;5052215;28;20502;-80
2023/07/16 06:47:36;;;;;;;12.75;6.25;;;18.20;80.80;;;;;;5036654;28;20044;-79
2023/07/16 06:50:02;;;;;;;11.45;6.32;;;18.10;79.80;;;;;;5053181;28;20481;-80
2023/07/16 06:52:28;;;;;;;16.73;6.28;;;18.10;80.10;;;;;;5035922;28;20100;-80
2023/07/16 06:54:55;;;;;;;11.05;5.72;;;18.00;80.60;;;;;;5016090;28;20043;-80
2023/07/16 06:57:21;;;;;;;13.85;6.28;;;17.90;81.30;;;;;;5032471;28;20124;-80
2023/07/16 06:59:47;;;;;;;14.30;5.95;;;17.80;82.30;;;;;;5032931;28;20136;-79
2023/07/16 07:02:13;;;;;;;15.05;5.93;;;17.80;81.90;;;;;;5016400;28;20476;-80
2023/07/16 07:04:38;;;;;;;13.85;6.72;;;17.70;82.40;;;;;;5015587;28;20050;-80
2023/07/16 07:07:05;;;;;;;15.10;7.15;;;17.60;83.30;;;;;;5015703;28;20034;-80
2023/07/16 07:09:30;;;;;;;12.10;5.97;;;17.60;83.80;;;;;;5032245;28;20033;-78
2023/07/16 07:11:56;;;;;;;15.77;6.40;;;17.50;84.00;;;;;;5015916;28;20458;-82
2023/07/16 07:14:22;;;;;;;16.13;6.60;;;17.50;83.90;;;;;;4998968;28;20120;-83
2023/07/16 07:16:47;;;;;;;17.58;7.03;;;17.50;84.30;;;;;;4982907;28;20045;-83
2023/07/16 07:19:13;;;;;;;18.33;7.38;;;17.50;84.00;;;;;;4982956;28;20041;-80
2023/07/16 07:21:39;;;;;;;16.80;6.82;;;17.50;84.70;;;;;;4998824;28;20554;-81
2023/07/16 07:24:05;;;;;;;18.15;7.55;;;17.50;84.10;;;;;;4982520;28;20045;-82
2023/07/16 07:26:31;;;;;;;12.52;5.80;;;17.70;84.30;;;;;;4998683;28;20045;-84
2023/07/16 07:28:57;;;;;;;11.70;4.50;;;17.90;83.30;;;;;;4982805;28;20046;-83
2023/07/16 07:31:23;;;;;;;16.98;5.78;;;18.00;82.00;;;;;;5018947;28;20052;-81
2023/07/16 07:33:48;;;;;;;12.50;5.05;;;18.00;80.80;;;;;;4993068;28;20362;-81
2023/07/16 07:36:14;;;;;;;12.23;6.38;;;18.30;80.80;;;;;;4992910;28;20405;-80
2023/07/16 07:38:40;;;;;;;11.63;5.65;;;18.40;79.90;;;;;;5048244;28;20107;-81
2023/07/16 07:41:06;;;;;;;10.60;5.22;;;18.50;80.00;;;;;;5009587;28;20030;-80
2023/07/16 07:43:31;;;;;;;12.77;5.07;;;18.70;79.50;;;;;;4994877;28;20047;-83
2023/07/16 07:45:57;;;;;;;12.25;5.30;;;18.60;78.00;;;;;;5017012;28;20037;-81
2023/07/16 07:48:23;;;;;;;8.48;4.78;;;18.50;77.70;;;;;;5034803;28;20094;-82
2023/07/16 07:50:50;;;;;;;10.77;4.78;;;18.60;77.80;;;;;;5035199;28;20557;-84
2023/07/16 07:53:17;;;;;;;12.52;5.65;;;18.50;77.80;;;;;;5034966;28;20473;-84
2023/07/16 07:55:44;;;;;;;11.50;5.43;;;18.70;77.70;;;;;;5018477;28;20045;-82
2023/07/16 07:58:09;;;;;;;13.18;6.07;;;18.80;77.50;;;;;;5002049;28;20125;-82
2023/07/16 08:00:35;;;;;;;10.63;4.65;;;18.90;76.50;;;;;;4994037;28;20036;-84
2023/07/16 08:03:01;;;;;;;11.45;5.15;;;19.00;76.60;;;;;;5034915;28;20079;-82
2023/07/16 08:05:27;;;;;;;9.02;4.80;;;19.00;76.10;;;;;;5020533;28;20051;-84
2023/07/16 08:07:53;;;;;;;12.70;6.20;;;18.90;76.90;;;;;;5003524;28;20914;-84
2023/07/16 08:10:19;;;;;;;11.32;6.10;;;19.00;76.80;;;;;;5007060;28;20499;-86
2023/07/16 08:12:45;;;;;;;13.70;6.63;;;19.00;76.90;;;;;;5004673;28;20047;-84
2023/07/16 08:15:14;;;;;;;12.50;5.80;;;19.10;77.00;;;;;;5016329;28;20474;-81
2023/07/16 08:17:44;;;;;;;10.90;5.53;;;19.10;76.90;;;;;;5002887;28;20467;-79
2023/07/16 08:20:11;;;;;;;13.85;6.22;;;19.00;77.00;;;;;;5018362;28;20045;-80
2023/07/16 08:22:37;;;;;;;11.50;5.97;;;19.20;76.80;;;;;;5018473;28;20148;-80
2023/07/16 08:25:04;;;;;;;19.38;6.47;;;19.30;76.00;;;;;;5017921;28;20041;-79
2023/07/16 08:27:30;;;;;;;16.60;6.93;;;19.50;76.30;;;;;;5018246;28;20402;-79
2023/07/16 08:29:56;;;;;;;12.20;5.30;;;19.70;74.70;;;;;;5034614;28;20044;-79
2023/07/16 08:32:22;;;;;;;19.65;6.13;;;19.70;73.10;;;;;;5005264;28;20033;-81
2023/07/16 08:34:48;;;;;;;12.38;6.00;;;19.60;73.40;;;;;;5054296;28;20494;-81
2023/07/16 08:37:14;;;;;;;11.50;4.93;;;19.60;73.70;;;;;;5021058;28;20040;-80
2023/07/16 08:39:40;;;;;;;16.00;5.45;;;19.60;73.50;;;;;;5021038;28;20037;-81
2023/07/16 08:42:08;;;;;;;13.88;5.47;;;19.70;74.00;;;;;;5054424;28;20029;-80
2023/07/16 08:44:35;;;;;;;8.80;4.68;;;19.70;73.50;;;;;;5054060;28;20485;-80
2023/07/16 08:47:00;;;;;;;15.45;5.63;;;19.90;73.30;;;;;;5053755;28;20375;-81
2023/07/16 08:49:30;;;;;;;15.18;5.05;;;19.90;73.10;;;;;;5001176;28;20040;-81
2023/07/16 08:51:56;;;;;;;13.98;5.18;;;20.10;72.50;;;;;;5017646;28;20128;-80
2023/07/16 08:54:22;;;;;;;11.45;4.68;;;20.30;72.00;;;;;;5034022;28;20087;-81
2023/07/16 08:56:48;;;;;;;13.07;4.97;;;20.30;71.30;;;;;;5017627;28;20077;-81
2023/07/16 08:59:17;;;;;;;10.15;4.15;;;20.20;71.70;;;;;;5017996;28;20386;-80
2023/07/16 09:01:44;;;;;;;15.23;5.30;;;20.20;72.20;;;;;;5017427;28;20095;-80
2023/07/16 09:04:10;;;;;;;14.57;5.50;;;20.20;72.20;;;;;;5018165;28;20053;-80
2023/07/16 09:06:35;;;;;;;10.25;5.68;;;20.00;73.00;;;;;;5002437;28;20413;-79
2023/07/16 09:09:01;;;;;;;11.18;6.28;;;20.00;73.50;;;;;;5000892;28;20037;-79
2023/07/16 09:11:27;;;;;;;14.75;6.10;;;19.90;73.80;;;;;;5033904;28;20037;-80
2023/07/16 09:13:52;;;;;;;10.50;5.60;;;20.10;73.80;;;;;;5033550;28;20550;-79
2023/07/16 09:16:20;;;;;;;17.17;6.32;;;20.10;72.60;;;;;;5032774;28;20041;-80
2023/07/16 09:18:46;;;;;;;11.82;5.05;;;20.20;71.80;;;;;;5017501;28;20041;-81
2023/07/16 09:21:12;;;;;;;9.93;4.75;;;20.00;71.90;;;;;;5016862;28;20041;-80
2023/07/16 09:23:38;;;;;;;11.85;5.63;;;20.00;71.90;;;;;;5017226;28;20041;-80
2023/07/16 09:26:03;;;;;;;12.10;5.20;;;20.20;72.50;;;;;;5016788;28;20045;-81
2023/07/16 09:28:34;;;;;;;13.20;5.05;;;20.40;70.70;;;;;;5000453;28;20041;-77
2023/07/16 09:31:07;;;;;;;12.38;5.50;;;20.40;69.50;;;;;;5016752;28;20041;-79
2023/07/16 09:33:33;;;;;;;13.35;5.43;;;20.60;68.90;;;;;;5033516;28;20029;-79
2023/07/16 09:35:59;;;;;;;13.45;5.38;;;20.80;68.50;;;;;;5016469;28;20136;-80
2023/07/16 09:38:27;;;;;;;12.05;6.32;;;20.90;68.50;;;;;;5026476;28;20132;-79
2023/07/16 09:40:53;;;;;;;11.43;6.15;;;20.60;68.40;;;;;;5052953;28;20127;-78
2023/07/16 09:43:20;;;;;;;9.63;6.13;;;20.40;68.90;;;;;;5020019;28;20076;-78
2023/07/16 09:45:46;;;;;;;9.95;5.22;;;20.60;69.20;;;;;;5019878;28;20051;-79
2023/07/16 09:48:13;;;;;;;10.05;4.93;;;20.70;69.60;;;;;;5019621;28;20119;-79
2023/07/16 09:50:46;;;;;;;12.95;5.78;;;20.50;67.30;;;;;;5036043;28;20055;-80
2023/07/16 09:53:14;;;;;;;13.52;5.93;;;20.50;68.20;;;;;;5035935;28;20515;-78
2023/07/16 09:55:40;;;;;;;8.77;5.43;;;20.60;68.00;;;;;;5016429;28;20160;-79
2023/07/16 09:58:11;;;;;;;11.13;5.28;;;20.60;68.00;;;;;;5016323;28;20509;-80
2023/07/16 10:00:39;;;;;;;13.05;5.32;;;20.80;68.60;;;;;;5033205;28;20448;-79
2023/07/16 10:03:07;;;;;;;12.02;4.95;;;20.70;67.60;;;;;;5032758;28;20045;-80
2023/07/16 10:05:39;;;;;;;14.38;5.38;;;20.60;67.40;;;;;;5032642;28;20099;-80
2023/07/16 10:08:15;;;;;;;14.48;5.65;;;20.50;66.50;;;;;;5000157;28;20038;-78
2023/07/16 10:10:43;;;;;;;11.10;4.80;;;20.40;66.30;;;;;;5016459;28;20144;-79
2023/07/16 10:13:12;;;;;;;10.85;5.07;;;20.00;69.90;;;;;;5027454;28;20048;-80
2023/07/16 10:15:39;;;;;;;12.13;5.28;;;20.00;71.10;;;;;;5052568;28;20059;-80
2023/07/16 10:18:05;;;;;;;9.85;5.00;;;19.90;70.80;;;;;;5035825;28;20103;-79
2023/07/16 10:20:33;;;;;;;10.05;4.38;;;19.70;71.20;;;;;;5035617;28;20435;-80
2023/07/16 10:23:11;;;;;;;13.73;4.82;;;19.70;70.70;;;;;;5035970;28;20040;-80
2023/07/16 10:25:36;;;;;;;12.55;5.15;;;19.90;69.80;;;;;;5052119;28;20409;-80
2023/07/16 10:28:02;;;;;;;10.82;4.75;;;20.00;69.40;;;;;;5017641;28;20036;-81
2023/07/16 10:30:28;;;;;;;16.95;5.07;;;20.00;69.90;;;;;;5032162;28;20507;-80
2023/07/16 10:32:53;;;;;;;13.68;4.80;;;20.00;70.30;;;;;;5015695;28;20044;-81
2023/07/16 10:35:19;;;;;;;10.55;4.82;;;19.90;67.90;;;;;;4999087;28;20413;-81
2023/07/16 10:37:45;;;;;;;10.55;4.80;;;19.80;69.00;;;;;;4999500;28;20490;-80
2023/07/16 10:40:12;;;;;;;10.00;5.00;;;19.80;70.00;;;;;;4999239;28;20045;-81
2023/07/16 10:42:42;;;;;;;10.68;4.78;;;20.00;69.30;;;;;;5015703;28;20081;-80
2023/07/16 10:45:09;;;;;;;12.98;4.75;;;20.10;68.40;;;;;;5022542;28;20069;-80
2023/07/16 10:47:50;;;;;;;10.77;5.35;;;20.10;68.20;;;;;;5035455;28;20037;-79
2023/07/16 10:50:16;;;;;;;9.30;4.05;;;20.40;68.10;;;;;;5035759;28;20080;-80
2023/07/16 10:52:41;;;;;;;9.70;4.82;;;20.40;67.20;;;;;;5035173;28;20505;-81
2023/07/16 10:55:07;;;;;;;13.38;4.10;;;20.10;67.90;;;;;;5018683;28;20118;-80
2023/07/16 10:57:33;;;;;;;9.85;4.13;;;20.10;68.10;;;;;;5018964;28;20037;-82
2023/07/16 11:00:00;;;;;;;13.60;4.60;;;20.00;68.00;;;;;;5002798;28;20049;-81
2023/07/16 11:02:30;;;;;;;7.97;4.43;;;20.20;68.30;;;;;;5035469;28;20037;-83
2023/07/16 11:04:57;;;;;;;13.32;3.83;;;20.40;66.50;;;;;;5019812;28;20456;-84
2023/07/16 11:07:23;;;;;;;11.57;4.30;;;20.40;65.10;;;;;;5019787;28;20467;-83
2023/07/16 11:09:53;;;;;;;11.20;4.65;;;20.30;65.20;;;;;;5052030;28;20548;-84
2023/07/16 11:12:22;;;;;;;12.60;4.25;;;20.50;63.30;;;;;;5035665;28;20041;-85
2023/07/16 11:14:52;;;;;;;9.20;4.13;;;20.80;63.20;;;;;;5051964;28;20124;-83
2023/07/16 11:17:20;;;;;;;19.25;3.42;;;20.80;63.20;;;;;;5035529;28;20044;-81
2023/07/16 11:19:47;;;;;;;14.23;4.55;;;20.90;62.30;;;;;;5052254;28;20037;-80
2023/07/16 11:22:14;;;;;;;9.68;4.03;;;20.70;62.70;;;;;;5018966;28;20478;-81
2023/07/16 11:24:50;;;;;;;15.88;4.53;;;20.60;64.20;;;;;;4995665;28;20051;-80
2023/07/16 11:27:26;;;;;;;12.10;4.13;;;20.30;64.90;;;;;;4999682;28;20111;-81
2023/07/16 11:29:53;;;;;;;12.65;3.50;;;20.50;64.80;;;;;;5016106;28;20056;-81
2023/07/16 11:32:41;;;;;;;14.70;3.67;;;20.90;64.30;;;;;;5009324;28;20120;-81
2023/07/16 11:35:07;;;;;;;10.63;3.38;;;21.40;61.50;;;;;;5039853;28;20128;-80
2023/07/16 11:37:34;;;;;;;13.07;3.60;;;21.40;60.30;;;;;;5052443;28;20436;-81
2023/07/16 11:40:06;;;;;;;14.32;4.22;;;21.40;61.50;;;;;;5037837;28;20049;-80
2023/07/16 11:42:36;;;;;;;9.52;3.10;;;21.10;61.80;;;;;;5039674;28;20041;-79
2023/07/16 11:45:03;;;;;;;14.23;4.38;;;21.10;62.30;;;;;;5038456;28;20045;-80
2023/07/16 11:47:29;;;;;;;11.85;3.90;;;20.80;62.90;;;;;;5020719;28;20039;-81
2023/07/16 11:49:56;;;;;;;12.88;4.03;;;20.40;64.10;;;;;;5054243;28;20045;-81
2023/07/16 11:52:27;;;;;;;17.17;4.82;;;20.40;64.70;;;;;;5002149;28;20033;-84
2023/07/16 11:54:53;;;;;;;11.82;3.38;;;20.50;65.00;;;;;;5018806;28;20053;-82
2023/07/16 11:57:20;;;;;;;13.30;3.95;;;20.80;64.30;;;;;;5035045;28;20049;-84
2023/07/16 11:59:45;;;;;;;15.57;4.20;;;21.00;63.60;;;;;;5018381;28;20124;-83
2023/07/16 12:02:12;;;;;;;12.27;3.55;;;21.20;63.30;;;;;;5018146;28;20168;-83
2023/07/16 12:04:41;;;;;;;13.65;4.22;;;21.10;63.20;;;;;;5034876;28;20489;-81
2023/07/16 12:07:07;;;;;;;21.05;5.13;;;21.10;64.00;;;;;;5018373;28;20068;-84
2023/07/16 12:09:33;;;;;;;12.20;4.50;;;21.10;65.00;;;;;;4999544;28;20048;-83
2023/07/16 12:12:00;;;;;;;13.88;5.32;;;20.90;66.10;;;;;;5021517;28;20154;-86
2023/07/16 12:14:26;;;;;;;12.50;3.97;;;20.80;66.50;;;;;;5038317;28;20037;-83
2023/07/16 12:16:52;;;;;;;13.57;4.43;;;20.70;67.60;;;;;;5034259;28;20335;-83
2023/07/16 12:19:18;;;;;;;12.05;4.05;;;20.50;68.30;;;;;;5030340;28;20099;-83
2023/07/16 12:21:44;;;;;;;12.15;3.85;;;20.20;69.00;;;;;;5025219;28;20045;-84
2023/07/16 12:24:10;;;;;;;19.13;5.53;;;20.00;69.60;;;;;;5054289;28;20442;-83
2023/07/16 12:26:36;;;;;;;18.10;5.97;;;19.90;71.80;;;;;;5037661;28;20048;-84
2023/07/16 12:29:05;;;;;;;13.80;5.60;;;19.70;74.90;;;;;;5037732;28;20041;-83
2023/07/16 12:31:31;;;;;;;11.38;4.32;;;19.60;76.00;;;;;;5037889;28;20498;-84
2023/07/16 12:33:58;;;;;;;15.90;4.88;;;19.60;76.00;;;;;;5037748;28;20112;-85
2023/07/16 12:36:24;;;;;;;15.05;4.68;;;19.50;75.80;;;;;;5037512;28;20056;-83